createdAt,value
2019-01-16T00:01:57.437Z,9.70
2019-01-16T00:04:41.623Z,8.83
2019-01-16T00:07:31.025Z,9.88
2019-01-16T00:10:24.692Z,10.13
2019-01-16T00:13:09.559Z,10.17
2019-01-16T00:15:47.048Z,10.27
2019-01-16T00:18:25.736Z,10.50
2019-01-16T00:21:09.375Z,9.83
2019-01-16T00:23:52.431Z,12.10
2019-01-16T00:26:30.855Z,11.07
2019-01-16T00:29:14.174Z,11.90
2019-01-16T00:31:57.926Z,12.43
2019-01-16T00:34:45.033Z,13.47
2019-01-16T00:37:39.520Z,12.50
2019-01-16T00:40:38.518Z,13.00
2019-01-16T00:43:39.876Z,13.40
2019-01-16T00:46:19.357Z,12.43
2019-01-16T00:49:16.668Z,12.13
2019-01-16T00:52:07.110Z,13.77
2019-01-16T00:55:01.551Z,11.60
2019-01-16T00:57:41.154Z,12.53
2019-01-16T01:00:22.868Z,12.93
2019-01-16T01:03:16.558Z,13.87
2019-01-16T01:06:07.949Z,11.80
2019-01-16T01:09:01.649Z,14.43
2019-01-16T01:11:40.842Z,15.50
2019-01-16T01:14:38.205Z,16.53
2019-01-16T01:17:29.965Z,14.77
2019-01-16T01:20:10.977Z,14.63
2019-01-16T01:22:57.208Z,15.48
2019-01-16T01:25:46.199Z,16.23
2019-01-16T01:28:27.565Z,15.53
2019-01-16T01:31:12.211Z,13.80
2019-01-16T01:33:50.904Z,14.18
2019-01-16T01:36:44.842Z,13.20
2019-01-16T01:39:50.968Z,14.27
2019-01-16T01:42:44.271Z,12.93
2019-01-16T01:45:23.826Z,14.23
2019-01-16T01:48:03.556Z,13.63
2019-01-16T01:50:48.596Z,14.07
2019-01-16T01:53:34.105Z,15.23
2019-01-16T01:56:29.630Z,16.57
2019-01-16T01:59:15.830Z,19.00
2019-01-16T02:01:54.223Z,18.77
2019-01-16T02:04:46.678Z,16.23
2019-01-16T02:07:40.141Z,18.17
2019-01-16T02:10:25.928Z,16.40
2019-01-16T02:13:18.477Z,20.33
2019-01-16T02:16:04.572Z,21.60
2019-01-16T02:19:01.110Z,15.18
2019-01-16T02:21:51.300Z,16.23
2019-01-16T02:24:49.685Z,15.57
2019-01-16T02:27:58.321Z,16.08
2019-01-16T02:30:56.481Z,16.62
2019-01-16T02:33:43.196Z,14.80
2019-01-16T02:36:37.067Z,14.27
2019-01-16T02:39:34.223Z,11.95
2019-01-16T02:42:26.664Z,14.80
2019-01-16T02:45:17.108Z,11.82
2019-01-16T02:48:02.506Z,12.95
2019-01-16T02:50:50.271Z,10.13
2019-01-16T02:53:28.746Z,11.73
2019-01-16T02:56:07.302Z,9.93
2019-01-16T02:58:48.651Z,11.37
2019-01-16T03:01:34.710Z,10.17
2019-01-16T03:04:29.072Z,10.70
2019-01-16T03:07:13.321Z,10.93
2019-01-16T03:09:57.493Z,10.10
2019-01-16T03:12:36.411Z,11.13
2019-01-16T03:15:15.627Z,11.30
2019-01-16T03:18:08.684Z,11.33
2019-01-16T03:20:58.727Z,11.80
2019-01-16T03:23:37.258Z,11.87
2019-01-16T03:26:23.002Z,12.43
2019-01-16T03:29:01.387Z,12.70
2019-01-16T03:31:55.883Z,14.07
2019-01-16T03:34:40.334Z,13.83
2019-01-16T03:37:32.784Z,13.97
2019-01-16T03:40:23.583Z,13.20
2019-01-16T03:43:07.184Z,13.80
2019-01-16T03:45:49.633Z,18.97
2019-01-16T03:48:43.162Z,16.03
2019-01-16T03:51:39.086Z,15.27
2019-01-16T03:54:36.172Z,16.30
2019-01-16T03:57:14.968Z,14.33
2019-01-16T04:00:07.521Z,15.70
2019-01-16T04:02:46.103Z,14.03
2019-01-16T04:05:39.525Z,13.30
2019-01-16T04:08:37.412Z,14.27
2019-01-16T04:11:26.425Z,15.63
2019-01-16T04:14:14.604Z,12.47
2019-01-16T04:17:09.091Z,17.30
2019-01-16T04:19:51.704Z,14.20
2019-01-16T04:22:39.552Z,15.00
2019-01-16T04:25:18.231Z,12.17
2019-01-16T04:28:10.601Z,14.50
2019-01-16T04:30:56.898Z,11.80
2019-01-16T04:33:36.112Z,10.67
2019-01-16T04:36:24.404Z,12.50
2019-01-16T04:39:08.429Z,14.03
2019-01-16T04:42:01.081Z,8.40
2019-01-16T04:44:51.386Z,11.02
2019-01-16T04:47:42.762Z,11.97
2019-01-16T04:50:32.063Z,11.40
2019-01-16T04:53:10.492Z,8.90
2019-01-16T04:56:03.219Z,9.40
2019-01-16T04:58:53.790Z,12.77
2019-01-16T05:01:32.307Z,9.40
2019-01-16T05:04:21.297Z,9.93
2019-01-16T05:07:13.740Z,9.00
2019-01-16T05:10:06.594Z,9.60
2019-01-16T05:12:46.025Z,10.97
2019-01-16T05:15:36.288Z,8.27
2019-01-16T05:18:27.598Z,10.20
2019-01-16T05:21:11.381Z,8.93
2019-01-16T05:24:04.031Z,7.87
2019-01-16T05:26:52.579Z,8.57
2019-01-16T05:29:47.490Z,8.93
2019-01-16T05:32:36.853Z,7.47
2019-01-16T05:35:15.239Z,7.13
2019-01-16T05:37:54.540Z,7.83
2019-01-16T05:40:48.784Z,8.43
2019-01-16T05:43:55.272Z,8.40
2019-01-16T05:46:38.389Z,8.77
2019-01-16T05:49:17.378Z,8.43
2019-01-16T05:52:08.117Z,7.70
2019-01-16T05:54:46.553Z,10.57
2019-01-16T05:57:35.859Z,10.47
2019-01-16T06:00:32.457Z,9.63
2019-01-16T06:03:30.923Z,11.17
2019-01-16T06:06:21.309Z,9.07
2019-01-16T06:09:17.660Z,9.02
2019-01-16T06:12:10.911Z,8.30
2019-01-16T06:15:05.404Z,15.10
2019-01-16T06:17:55.516Z,8.15
2019-01-16T06:20:43.804Z,7.62
2019-01-16T06:23:38.230Z,6.82
2019-01-16T06:26:19.500Z,6.73
2019-01-16T06:29:03.667Z,5.33
2019-01-16T06:31:51.715Z,9.25
2019-01-16T06:34:34.725Z,7.17
2019-01-16T06:37:28.904Z,7.30
2019-01-16T06:40:24.419Z,7.80
2019-01-16T06:43:03.015Z,8.27
2019-01-16T06:45:49.850Z,8.57
2019-01-16T06:48:40.249Z,6.87
2019-01-16T06:51:25.844Z,9.47
2019-01-16T06:54:08.312Z,7.37
2019-01-16T06:57:03.240Z,6.80
2019-01-16T06:59:56.502Z,8.50
2019-01-16T07:02:52.427Z,6.43
2019-01-16T07:05:46.918Z,9.57
2019-01-16T07:08:31.580Z,6.90
2019-01-16T07:11:17.672Z,6.73
2019-01-16T07:14:08.032Z,8.43
2019-01-16T07:17:01.461Z,14.30
2019-01-16T07:19:57.460Z,5.95
2019-01-16T07:22:53.793Z,5.70
2019-01-16T07:25:46.853Z,6.23
2019-01-16T07:28:34.252Z,6.17
2019-01-16T07:31:22.064Z,6.77
2019-01-16T07:34:02.117Z,6.75
2019-01-16T07:36:40.961Z,5.77
2019-01-16T07:39:42.653Z,6.67
2019-01-16T07:42:46.834Z,5.82
2019-01-16T07:45:26.922Z,5.50
2019-01-16T07:48:10.045Z,5.70
2019-01-16T07:51:04.231Z,6.55
2019-01-16T07:53:44.350Z,5.20
2019-01-16T07:56:23.107Z,7.47
2019-01-16T07:59:21.707Z,7.20
2019-01-16T08:02:09.288Z,5.97
2019-01-16T08:04:54.501Z,6.90
2019-01-16T08:07:41.978Z,6.27
2019-01-16T08:10:36.146Z,5.43
2019-01-16T08:13:25.589Z,8.15
2019-01-16T08:16:05.979Z,5.97
2019-01-16T08:18:53.322Z,6.77
2019-01-16T08:21:41.503Z,7.30
2019-01-16T08:24:20.250Z,5.93
2019-01-16T08:27:15.126Z,5.60
2019-01-16T08:30:05.328Z,5.35
2019-01-16T08:33:02.282Z,7.30
2019-01-16T08:35:54.315Z,6.93
2019-01-16T08:38:45.320Z,5.23
2019-01-16T08:41:33.250Z,7.23
2019-01-16T08:44:16.071Z,7.97
2019-01-16T08:47:13.629Z,9.77
2019-01-16T08:50:12.626Z,8.73
2019-01-16T08:53:19.614Z,6.72
2019-01-16T08:56:12.054Z,8.73
2019-01-16T08:58:52.177Z,10.17
2019-01-16T09:01:37.604Z,11.20
2019-01-16T09:04:32.999Z,8.85
2019-01-16T09:07:31.792Z,10.10
2019-01-16T09:10:29.353Z,10.67
2019-01-16T09:13:18.518Z,10.27
2019-01-16T09:15:56.872Z,15.00
2019-01-16T09:18:40.432Z,15.27
2019-01-16T09:21:36.323Z,14.37
2019-01-16T09:24:41.123Z,15.80
2019-01-16T09:27:52.204Z,15.30
2019-01-16T09:31:01.850Z,13.50
2019-01-16T09:33:50.445Z,15.00
2019-01-16T09:36:45.301Z,16.93
2019-01-16T09:39:45.702Z,15.00
2019-01-16T09:42:29.987Z,15.83
2019-01-16T09:45:13.837Z,16.03
2019-01-16T09:47:53.553Z,15.53
2019-01-16T09:50:48.045Z,15.63
2019-01-16T09:53:44.399Z,13.83
2019-01-16T09:56:37.866Z,11.60
2019-01-16T09:59:24.984Z,14.10
2019-01-16T10:02:09.678Z,12.70
2019-01-16T10:04:58.803Z,15.73
2019-01-16T10:07:43.835Z,15.47
2019-01-16T10:10:34.656Z,13.10
2019-01-16T10:13:16.340Z,9.77
2019-01-16T10:16:11.765Z,10.52
2019-01-16T10:19:14.987Z,9.50
2019-01-16T10:21:54.902Z,11.60
2019-01-16T10:24:41.120Z,12.30
2019-01-16T10:27:26.799Z,12.63
2019-01-16T10:30:19.771Z,12.43
2019-01-16T10:33:06.213Z,14.47
2019-01-16T10:36:00.560Z,11.33
2019-01-16T10:38:52.680Z,11.68
2019-01-16T10:41:48.589Z,10.95
2019-01-16T10:44:32.564Z,9.13
2019-01-16T10:47:16.289Z,12.53
2019-01-16T10:50:11.923Z,10.53
2019-01-16T10:53:07.643Z,10.57
2019-01-16T10:56:02.814Z,12.50
2019-01-16T10:58:59.493Z,13.00
2019-01-16T11:01:46.172Z,12.17
2019-01-16T11:04:43.767Z,12.97
2019-01-16T11:07:37.942Z,12.68
2019-01-16T11:10:18.983Z,12.02
2019-01-16T11:12:58.129Z,15.53
2019-01-16T11:15:47.616Z,10.00
2019-01-16T11:18:26.432Z,11.10
2019-01-16T11:21:11.195Z,8.70
2019-01-16T11:24:00.113Z,11.40
2019-01-16T11:26:45.352Z,11.63
2019-01-16T11:29:41.686Z,17.10
2019-01-16T11:32:36.587Z,10.27
2019-01-16T11:35:24.725Z,14.43
2019-01-16T11:38:25.776Z,13.73
2019-01-16T11:41:10.027Z,10.73
2019-01-16T11:43:58.259Z,12.40
2019-01-16T11:46:43.237Z,13.48
2019-01-16T11:49:36.777Z,15.33
2019-01-16T11:52:15.808Z,13.17
2019-01-16T11:54:54.319Z,16.57
2019-01-16T11:57:36.556Z,13.43
2019-01-16T12:00:27.039Z,18.13
2019-01-16T12:03:13.258Z,14.67
2019-01-16T12:06:07.948Z,14.57
2019-01-16T12:08:59.730Z,13.80
2019-01-16T12:11:55.589Z,11.87
2019-01-16T12:14:41.388Z,13.80
2019-01-16T12:17:19.894Z,14.00
2019-01-16T12:19:58.814Z,11.57
2019-01-16T12:22:54.546Z,14.10
2019-01-16T12:25:52.113Z,11.70
2019-01-16T12:28:37.672Z,16.70
2019-01-16T12:31:17.955Z,11.27
2019-01-16T12:33:57.999Z,12.90
2019-01-16T12:36:55.539Z,14.60
2019-01-16T12:39:35.309Z,11.40
2019-01-16T12:42:26.565Z,13.47
2019-01-16T12:45:16.163Z,10.93
2019-01-16T12:47:56.157Z,11.57
2019-01-16T12:50:47.370Z,8.47
2019-01-16T12:53:37.355Z,12.03
2019-01-16T12:56:33.904Z,8.63
2019-01-16T12:59:16.160Z,13.13
2019-01-16T13:02:12.443Z,14.03
2019-01-16T13:04:59.962Z,11.57
2019-01-16T13:07:56.367Z,12.67
2019-01-16T13:11:01.843Z,12.20
2019-01-16T13:14:04.276Z,14.07
2019-01-16T13:17:20.419Z,11.90
2019-01-16T13:20:24.105Z,10.50
2019-01-16T13:23:11.248Z,14.97
2019-01-16T13:26:08.608Z,12.88
2019-01-16T13:29:14.776Z,12.88
2019-01-16T13:31:56.624Z,14.80
2019-01-16T13:34:37.321Z,11.90
2019-01-16T13:37:27.499Z,12.67
2019-01-16T13:40:20.576Z,15.90
2019-01-16T13:43:32.904Z,13.75
2019-01-16T13:46:13.658Z,14.57
2019-01-16T13:49:00.822Z,14.63
2019-01-16T13:51:50.351Z,15.70
2019-01-16T13:54:44.433Z,17.27
2019-01-16T13:57:45.277Z,13.95
2019-01-16T14:00:41.616Z,13.73
2019-01-16T14:03:20.777Z,14.47
2019-01-16T14:06:13.384Z,13.17
2019-01-16T14:09:02.634Z,13.63
2019-01-16T14:11:44.359Z,14.77
2019-01-16T14:14:29.263Z,13.33
2019-01-16T14:17:34.558Z,14.30
2019-01-16T14:20:25.501Z,16.52
2019-01-16T14:23:18.213Z,15.63
2019-01-16T14:26:04.107Z,16.50
2019-01-16T14:28:58.183Z,12.27
2019-01-16T14:31:39.283Z,13.83
2019-01-16T14:34:27.460Z,13.43
2019-01-16T14:37:22.409Z,16.00
2019-01-16T14:40:01.548Z,13.60
2019-01-16T14:42:40.860Z,13.27
2019-01-16T14:45:38.523Z,11.50
2019-01-16T14:48:45.295Z,13.23
2019-01-16T14:51:27.021Z,13.23
2019-01-16T14:54:06.940Z,12.83
2019-01-16T14:56:46.193Z,14.93
2019-01-16T14:59:39.101Z,13.33
2019-01-16T15:02:28.087Z,12.10
2019-01-16T15:05:07.221Z,11.00
2019-01-16T15:07:53.544Z,15.07
2019-01-16T15:10:46.804Z,12.00
2019-01-16T15:13:36.801Z,14.48
2019-01-16T15:16:15.680Z,13.60
2019-01-16T15:19:01.286Z,11.73
2019-01-16T15:21:54.871Z,14.73
2019-01-16T15:24:42.293Z,13.83
2019-01-16T15:27:22.250Z,13.90
2019-01-16T15:30:01.156Z,9.07
2019-01-16T15:33:01.297Z,12.70
2019-01-16T15:35:58.834Z,10.80
2019-01-16T15:38:45.566Z,12.70
2019-01-16T15:41:29.533Z,10.83
2019-01-16T15:44:19.596Z,13.67
2019-01-16T15:47:07.484Z,13.97
2019-01-16T15:50:22.719Z,12.37
2019-01-16T15:53:16.503Z,10.13
2019-01-16T15:56:13.646Z,10.50
2019-01-16T15:59:26.121Z,12.13
2019-01-16T16:02:29.510Z,11.02
2019-01-16T16:05:31.420Z,10.30
2019-01-16T16:08:13.617Z,8.53
2019-01-16T16:11:08.897Z,11.03
2019-01-16T16:13:56.992Z,10.48
2019-01-16T16:16:49.077Z,10.40
2019-01-16T16:19:38.881Z,9.67
2019-01-16T16:22:25.976Z,11.60
2019-01-16T16:25:06.424Z,11.43
2019-01-16T16:27:47.359Z,8.53
2019-01-16T16:30:43.061Z,10.63
2019-01-16T16:33:53.743Z,9.82
2019-01-16T16:36:44.462Z,9.85
2019-01-16T16:39:37.483Z,12.73
2019-01-16T16:42:36.181Z,9.00
2019-01-16T16:45:38.342Z,10.45
2019-01-16T16:48:16.950Z,9.57
2019-01-16T16:51:05.913Z,11.23
2019-01-16T16:53:54.492Z,10.87
2019-01-16T16:56:34.309Z,10.40
2019-01-16T16:59:21.759Z,10.43
2019-01-16T17:02:14.405Z,9.10
2019-01-16T17:05:13.801Z,11.32
2019-01-16T17:08:09.765Z,7.53
2019-01-16T17:11:05.358Z,9.97
2019-01-16T17:14:11.008Z,10.38
2019-01-16T17:17:09.771Z,8.88
2019-01-16T17:20:06.956Z,14.53
2019-01-16T17:23:05.133Z,9.48
2019-01-16T17:25:59.626Z,10.20
2019-01-16T17:28:39.550Z,9.30
2019-01-16T17:31:21.161Z,10.00
2019-01-16T17:34:15.405Z,11.20
2019-01-16T17:37:05.802Z,11.00
2019-01-16T17:39:49.251Z,9.02
2019-01-16T17:42:49.707Z,11.23
2019-01-16T17:45:33.736Z,9.67
2019-01-16T17:48:33.336Z,11.57
2019-01-16T17:51:29.818Z,7.47
2019-01-16T17:54:28.496Z,10.73
2019-01-16T17:57:25.029Z,9.50
2019-01-16T18:00:19.015Z,11.53
2019-01-16T18:03:07.643Z,13.93
2019-01-16T18:05:50.535Z,10.77
2019-01-16T18:08:59.514Z,10.57
2019-01-16T18:11:39.464Z,13.23
2019-01-16T18:14:32.518Z,11.70
2019-01-16T18:17:12.365Z,7.50
2019-01-16T18:20:05.323Z,13.33
2019-01-16T18:22:54.961Z,9.93
2019-01-16T18:25:39.967Z,12.07
2019-01-16T18:28:28.491Z,12.77
2019-01-16T18:31:06.989Z,12.77
2019-01-16T18:34:10.025Z,13.65
2019-01-16T18:37:04.931Z,11.83
2019-01-16T18:40:00.031Z,11.77
2019-01-16T18:42:38.558Z,14.47
2019-01-16T18:45:21.240Z,13.37
2019-01-16T18:48:00.152Z,11.83
2019-01-16T18:50:56.830Z,10.50
2019-01-16T18:54:00.559Z,12.50
2019-01-16T18:56:47.864Z,13.23
2019-01-16T18:59:45.834Z,12.57
2019-01-16T19:02:37.154Z,13.15
2019-01-16T19:05:18.321Z,13.50
2019-01-16T19:08:10.510Z,10.60
2019-01-16T19:10:49.210Z,11.83
2019-01-16T19:13:46.751Z,12.60
2019-01-16T19:16:53.642Z,13.18
2019-01-16T19:19:52.940Z,13.77
2019-01-16T19:22:38.122Z,10.03
2019-01-16T19:25:35.671Z,13.97
2019-01-16T19:28:47.444Z,12.60
2019-01-16T19:31:36.844Z,13.52
2019-01-16T19:34:23.913Z,10.97
2019-01-16T19:37:18.140Z,10.83
2019-01-16T19:40:14.883Z,11.60
2019-01-16T19:43:14.582Z,10.55
2019-01-16T19:46:03.256Z,10.90
2019-01-16T19:48:59.800Z,13.67
2019-01-16T19:51:55.403Z,12.32
2019-01-16T19:54:35.515Z,14.83
2019-01-16T19:57:30.365Z,14.40
2019-01-16T20:00:38.379Z,13.10
2019-01-16T20:03:37.490Z,10.40
2019-01-16T20:06:28.772Z,13.23
2019-01-16T20:09:13.524Z,13.57
2019-01-16T20:12:12.036Z,13.50
2019-01-16T20:14:59.359Z,13.90
2019-01-16T20:17:47.038Z,13.17
2019-01-16T20:20:43.199Z,12.73
2019-01-16T20:23:27.064Z,16.00
2019-01-16T20:26:07.716Z,12.30
2019-01-16T20:29:03.761Z,10.17
2019-01-16T20:32:04.183Z,14.93
2019-01-16T20:34:57.662Z,18.47
2019-01-16T20:37:56.445Z,18.27
2019-01-16T20:40:50.531Z,15.33
2019-01-16T20:43:50.041Z,13.82
2019-01-16T20:46:30.442Z,12.43
2019-01-16T20:49:25.200Z,15.70
2019-01-16T20:52:38.322Z,13.43
2019-01-16T20:55:25.648Z,11.77
2019-01-16T20:58:05.986Z,12.07
2019-01-16T21:00:51.691Z,10.20
2019-01-16T21:03:46.555Z,13.50
2019-01-16T21:06:31.385Z,10.70
2019-01-16T21:09:13.327Z,15.03
2019-01-16T21:12:07.333Z,12.03
2019-01-16T21:14:51.071Z,12.85
2019-01-16T21:17:32.559Z,13.23
2019-01-16T21:20:15.317Z,11.70
2019-01-16T21:23:05.241Z,13.30
2019-01-16T21:25:56.089Z,10.63
2019-01-16T21:28:51.586Z,14.20
2019-01-16T21:32:00.714Z,9.90
2019-01-16T21:34:57.047Z,13.00
2019-01-16T21:37:58.914Z,12.43
2019-01-16T21:40:55.858Z,13.63
2019-01-16T21:44:05.302Z,11.57
2019-01-16T21:46:44.115Z,10.23
2019-01-16T21:49:22.346Z,11.27
2019-01-16T21:52:07.815Z,12.70
2019-01-16T21:54:51.861Z,9.80
2019-01-16T21:57:33.652Z,13.03
2019-01-16T22:00:20.655Z,10.90
2019-01-16T22:03:19.364Z,11.13
2019-01-16T22:06:09.820Z,12.25
2019-01-16T22:08:59.744Z,12.93
2019-01-16T22:11:39.336Z,12.60
2019-01-16T22:14:26.585Z,12.67
2019-01-16T22:17:05.517Z,12.97
2019-01-16T22:19:49.169Z,11.33
2019-01-16T22:22:39.054Z,13.97
2019-01-16T22:25:18.639Z,10.57
2019-01-16T22:28:01.210Z,10.30
2019-01-16T22:30:42.620Z,13.33
2019-01-16T22:33:36.874Z,10.80
2019-01-16T22:36:33.006Z,13.48
2019-01-16T22:39:27.700Z,13.63
2019-01-16T22:42:13.386Z,14.47
2019-01-16T22:44:58.864Z,15.73
2019-01-16T22:47:53.558Z,15.87
2019-01-16T22:50:50.919Z,12.90
2019-01-16T22:53:43.443Z,13.23
2019-01-16T22:56:36.651Z,13.93
2019-01-16T22:59:23.333Z,13.80
2019-01-16T23:02:17.821Z,11.90
2019-01-16T23:05:22.562Z,15.43
2019-01-16T23:08:08.415Z,14.63
2019-01-16T23:10:53.726Z,13.63
2019-01-16T23:13:47.799Z,17.43
2019-01-16T23:16:38.183Z,13.43
2019-01-16T23:19:33.511Z,13.63
2019-01-16T23:22:26.560Z,13.00
2019-01-16T23:25:28.104Z,16.08
2019-01-16T23:28:14.342Z,15.57
2019-01-16T23:31:15.157Z,14.67
2019-01-16T23:34:00.840Z,15.47
2019-01-16T23:36:59.035Z,14.77
2019-01-16T23:40:08.526Z,16.58
2019-01-16T23:43:15.854Z,16.25
2019-01-16T23:46:25.090Z,17.87
2019-01-16T23:49:32.279Z,18.00
2019-01-16T23:52:23.275Z,18.48
2019-01-16T23:55:14.385Z,16.00
2019-01-16T23:58:00.747Z,20.83
